»·PEaware :: AAL1531 KDEN-KSFO

AAL1531 :: KDEN-KSFO

FLIGHT INFORMATION

Flight Status: Arrived
Operator:
American Airlines
More flights by this operator :: More flights under this callsign
Pilot: Peter K. (27344)
Aircraft: AIRBUS A320
(A320)
More flights by this aircraft type
Origin: KDEN Denver Intl
United States
Destination: KSFO San Francisco Intl
United States
More flights between these airports :: More routes between these airports
Route: +COORZ4 VOAXA Q136 OAL DYAMD5
File this flight plan on PilotEdge
Remarks:
Altitude:
(Current/Filed)
34,000ft
Speed:
(Current/Filed)
450kts
Departed: 30-Dec-19 08:46 AM
Arrived: 30-Dec-19 10:49 AM
Distance/Time
Traveled:
838nm/2:03
Distance/Time
To Go:
Arrived

Flight Plot

Page will automatically refresh every two minutes.

Flight plan parsing failed; only flown route is shown


Map Options




Map Legend


Flown Route
Filed Route
Departure Airport
Arrival Airport
Navaid (VOR, NDB)
Fix

Horizontal Profiles

Position Reports

Time Latitude Longitude Heading Altitude Ground
Speed
30-Dec-19 08:07 39.854577 -104.671838 214 5380ft 0kts
30-Dec-19 08:08 39.854577 -104.671838 214 5380ft 0kts
30-Dec-19 08:09 39.854577 -104.671838 214 5380ft 0kts
30-Dec-19 08:10 39.854577 -104.671838 214 5380ft 0kts
30-Dec-19 08:11 39.854577 -104.671838 214 5380ft 0kts
30-Dec-19 08:12 39.854577 -104.671838 214 5380ft 0kts
30-Dec-19 08:13 39.854577 -104.671838 214 5380ft 0kts
30-Dec-19 08:14 39.854577 -104.671838 214 5380ft 0kts
30-Dec-19 08:15 39.854577 -104.671838 214 5380ft 0kts
30-Dec-19 08:16 39.854577 -104.671838 214 5380ft 0kts
30-Dec-19 08:17 39.854577 -104.671838 214 5380ft 0kts
30-Dec-19 08:18 39.854577 -104.671838 214 5380ft 0kts
30-Dec-19 08:19 39.854577 -104.671838 214 5380ft 0kts
30-Dec-19 08:20 39.854577 -104.671838 214 5380ft 0kts
30-Dec-19 08:21 39.854577 -104.671838 214 5380ft 0kts
30-Dec-19 08:22 39.854577 -104.671838 214 5380ft 0kts
30-Dec-19 08:23 39.854577 -104.671838 214 5380ft 0kts
30-Dec-19 08:24 39.854577 -104.671838 214 5380ft 0kts
30-Dec-19 08:25 39.854577 -104.671838 214 5380ft 0kts
30-Dec-19 08:26 39.854577 -104.671838 214 5380ft 0kts
30-Dec-19 08:27 39.854577 -104.671838 214 5380ft 0kts
30-Dec-19 08:28 39.854577 -104.671838 214 5380ft 0kts
30-Dec-19 08:29 39.854577 -104.671838 214 5380ft 0kts
30-Dec-19 08:30 39.854577 -104.671838 214 5380ft 0kts
30-Dec-19 08:32 39.854577 -104.671838 214 5380ft 0kts
30-Dec-19 08:33 39.854577 -104.671838 214 5380ft 0kts
30-Dec-19 08:34 39.854577 -104.671838 214 5380ft 0kts
30-Dec-19 08:35 39.855062 -104.671764 145 5380ft 2kts
30-Dec-19 08:36 39.855243 -104.672258 87 5380ft 0kts
30-Dec-19 08:37 39.855243 -104.672257 87 5380ft 0kts
30-Dec-19 08:38 39.855243 -104.672257 87 5380ft 0kts
30-Dec-19 08:39 39.855243 -104.672257 87 5380ft 0kts
30-Dec-19 08:40 39.855247 -104.671766 89 5380ft 10kts
30-Dec-19 08:41 39.855908 -104.667129 90 5380ft 13kts
30-Dec-19 08:42 39.856838 -104.663523 0 5380ft 10kts
30-Dec-19 08:43 39.860706 -104.663424 20 5380ft 15kts
30-Dec-19 08:44 39.861091 -104.661862 90 5380ft 0kts
30-Dec-19 08:45 39.860955 -104.660481 126 5380ft 14kts
30-Dec-19 08:46 39.847835 -104.660323 180 5381ft 152kts
30-Dec-19 08:47 39.808615 -104.681150 262 7857ft 182kts
30-Dec-19 08:48 39.809623 -104.755474 271 9874ft 232kts
30-Dec-19 08:49 39.814432 -104.847522 282 9991ft 261kts
30-Dec-19 08:50 39.828635 -104.941176 278 10309ft 273kts
30-Dec-19 08:51 39.845531 -105.049146 284 11387ft 341kts
30-Dec-19 08:51 39.867762 -105.151378 284 13012ft 361kts
30-Dec-19 08:53 39.899809 -105.300129 283 15598ft 370kts
30-Dec-19 08:54 39.894556 -105.433675 260 17566ft 376kts
30-Dec-19 08:54 39.881480 -105.545843 260 19167ft 378kts
30-Dec-19 08:56 39.862378 -105.702432 259 21052ft 385kts
30-Dec-19 08:56 39.851832 -105.818691 262 22274ft 390kts
30-Dec-19 08:57 39.839608 -105.959910 262 23237ft 393kts
30-Dec-19 08:58 39.827175 -106.101528 262 23243ft 394kts
30-Dec-19 08:59 39.814148 -106.243945 263 24153ft 401kts
30-Dec-19 09:00 39.801229 -106.388878 263 25320ft 407kts
30-Dec-19 09:01 39.787959 -106.536044 263 26435ft 412kts
30-Dec-19 09:02 39.772213 -106.681361 262 27407ft 417kts
30-Dec-19 09:03 39.755698 -106.831687 262 28259ft 424kts
30-Dec-19 09:04 39.738498 -106.986774 262 28613ft 442kts
30-Dec-19 09:05 39.720587 -107.146076 262 29416ft 447kts
30-Dec-19 09:06 39.702449 -107.305313 262 30460ft 445kts
30-Dec-19 09:07 39.684077 -107.464754 262 31398ft 446kts
30-Dec-19 09:08 39.665547 -107.623600 262 32305ft 446kts
30-Dec-19 09:09 39.646797 -107.782352 262 33200ft 445kts
30-Dec-19 09:10 39.627795 -107.941337 262 34013ft 444kts
30-Dec-19 09:11 39.608641 -108.099763 262 34315ft 449kts
30-Dec-19 09:12 39.588781 -108.262272 262 34298ft 459kts
30-Dec-19 09:13 39.568512 -108.425771 262 34319ft 459kts
30-Dec-19 09:14 39.548063 -108.588876 262 34322ft 459kts
30-Dec-19 09:15 39.527632 -108.750003 261 34323ft 459kts
30-Dec-19 09:16 39.506707 -108.913108 261 34323ft 459kts
30-Dec-19 09:17 39.485525 -109.076411 260 34321ft 466kts
30-Dec-19 09:18 39.463583 -109.243612 259 34322ft 471kts
30-Dec-19 09:19 39.441444 -109.410177 259 34314ft 470kts
30-Dec-19 09:20 39.419237 -109.576679 260 34313ft 470kts
30-Dec-19 09:21 39.396784 -109.742847 259 34314ft 470kts
30-Dec-19 09:22 39.374161 -109.909321 259 34314ft 470kts
30-Dec-19 09:23 39.351373 -110.075547 258 34284ft 470kts
30-Dec-19 09:24 39.328309 -110.241835 259 34274ft 470kts
30-Dec-19 09:25 39.305881 -110.407975 259 34268ft 471kts
30-Dec-19 09:26 39.283133 -110.573946 259 34268ft 470kts
30-Dec-19 09:27 39.260098 -110.739825 259 34268ft 471kts
30-Dec-19 09:28 39.236840 -110.905345 259 34267ft 471kts
30-Dec-19 09:29 39.213190 -111.071962 258 34267ft 475kts
30-Dec-19 09:30 39.189151 -111.239466 258 34267ft 476kts
30-Dec-19 09:31 39.164806 -111.407238 258 34269ft 476kts
30-Dec-19 09:32 39.140271 -111.574557 258 34275ft 476kts
30-Dec-19 09:33 39.115438 -111.742157 257 34277ft 475kts
30-Dec-19 09:34 39.090418 -111.909263 257 34276ft 476kts
30-Dec-19 09:35 39.065196 -112.076025 257 34276ft 476kts
30-Dec-19 09:36 39.039704 -112.242884 257 34277ft 476kts
30-Dec-19 09:37 39.013898 -112.410091 257 34277ft 475kts
30-Dec-19 09:38 38.988170 -112.575093 257 34277ft 475kts
30-Dec-19 09:39 38.962038 -112.741275 256 34268ft 474kts
30-Dec-19 09:40 38.935684 -112.907005 256 34255ft 473kts
30-Dec-19 09:41 38.909127 -113.072410 257 34250ft 473kts
30-Dec-19 09:42 38.882372 -113.237445 257 34250ft 472kts
30-Dec-19 09:43 38.855430 -113.402095 257 34249ft 472kts
30-Dec-19 09:44 38.828157 -113.567225 257 34250ft 472kts
30-Dec-19 09:45 38.800741 -113.731691 256 34249ft 472kts
30-Dec-19 09:46 38.773075 -113.896132 256 34240ft 472kts
30-Dec-19 09:47 38.745108 -114.060819 256 34231ft 472kts
30-Dec-19 09:48 38.717027 -114.224690 256 34231ft 472kts
30-Dec-19 09:49 38.688730 -114.388362 256 34231ft 472kts
30-Dec-19 09:50 38.660164 -114.552131 256 34231ft 472kts
30-Dec-19 09:51 38.631328 -114.716013 255 34231ft 472kts
30-Dec-19 09:52 38.602275 -114.879722 255 34231ft 472kts
30-Dec-19 09:53 38.573014 -115.043180 255 34230ft 474kts
30-Dec-19 09:54 38.543184 -115.208392 256 34231ft 479kts
30-Dec-19 09:55 38.513044 -115.373813 256 34230ft 479kts
30-Dec-19 09:56 38.482607 -115.539423 256 34230ft 479kts
30-Dec-19 09:57 38.451931 -115.704964 255 34230ft 480kts
30-Dec-19 09:58 38.421053 -115.870198 255 34216ft 480kts
30-Dec-19 09:59 38.389834 -116.035876 255 34213ft 481kts
30-Dec-19 10:00 38.358531 -116.200611 255 34212ft 479kts
30-Dec-19 10:01 38.325991 -116.365302 253 34211ft 479kts
30-Dec-19 10:02 38.289289 -116.528607 253 34213ft 480kts
30-Dec-19 10:03 38.252286 -116.692176 252 34212ft 480kts
30-Dec-19 10:04 38.215108 -116.855322 252 34212ft 480kts
30-Dec-19 10:05 38.177669 -117.018647 253 34213ft 482kts
30-Dec-19 10:06 38.139963 -117.181728 254 34234ft 486kts
30-Dec-19 10:07 38.101564 -117.347228 255 34231ft 488kts
30-Dec-19 10:08 38.063233 -117.512877 255 34231ft 488kts
30-Dec-19 10:09 38.024873 -117.677352 254 34232ft 488kts
30-Dec-19 10:10 37.995319 -117.844798 263 34243ft 485kts
30-Dec-19 10:11 37.977488 -118.014102 263 34262ft 484kts
30-Dec-19 10:12 37.959473 -118.182836 263 34262ft 485kts
30-Dec-19 10:13 37.941141 -118.352204 263 34255ft 484kts
30-Dec-19 10:14 37.922613 -118.521113 263 34242ft 485kts
30-Dec-19 10:15 37.904105 -118.687565 263 34239ft 485kts
30-Dec-19 10:16 37.885224 -118.855138 264 34238ft 486kts
30-Dec-19 10:17 37.865946 -119.023790 266 33368ft 476kts
30-Dec-19 10:18 37.846814 -119.189430 266 32395ft 479kts
30-Dec-19 10:19 37.827271 -119.356454 265 31430ft 480kts
30-Dec-19 10:20 37.807465 -119.523551 265 30465ft 484kts
30-Dec-19 10:21 37.787305 -119.691534 264 30217ft 485kts
30-Dec-19 10:22 37.766806 -119.860114 264 30212ft 484kts
30-Dec-19 10:23 37.746187 -120.027765 264 30212ft 484kts
30-Dec-19 10:24 37.725197 -120.196363 264 30180ft 485kts
30-Dec-19 10:25 37.704028 -120.364164 264 27429ft 461kts
30-Dec-19 10:26 37.685732 -120.516740 264 25451ft 435kts
30-Dec-19 10:27 37.668504 -120.664735 263 23168ft 432kts
30-Dec-19 10:28 37.651939 -120.803828 262 21653ft 409kts
30-Dec-19 10:29 37.635069 -120.943483 262 19760ft 396kts
30-Dec-19 10:30 37.617328 -121.078507 262 17798ft 387kts
30-Dec-19 10:31 37.599616 -121.210016 263 15936ft 370kts
30-Dec-19 10:32 37.584138 -121.333430 263 13573ft 335kts
30-Dec-19 10:33 37.571327 -121.445542 263 11900ft 326kts
30-Dec-19 10:34 37.557317 -121.563508 260 10235ft 340kts
30-Dec-19 10:35 37.534263 -121.675324 255 8594ft 308kts
30-Dec-19 10:36 37.514660 -121.770942 256 8075ft 259kts
30-Dec-19 10:37 37.495072 -121.856013 254 7035ft 252kts
30-Dec-19 10:38 37.497850 -121.926434 283 6992ft 155kts
30-Dec-19 10:39 37.505533 -121.978983 280 6687ft 154kts
30-Dec-19 10:40 37.512312 -122.030337 282 5884ft 150kts
30-Dec-19 10:41 37.519526 -122.082245 281 4858ft 150kts
30-Dec-19 10:42 37.526668 -122.132398 281 3836ft 146kts
30-Dec-19 10:43 37.536311 -122.181576 301 3133ft 143kts
30-Dec-19 10:44 37.555833 -122.225277 299 2347ft 143kts
30-Dec-19 10:45 37.574495 -122.269682 298 1600ft 144kts
30-Dec-19 10:46 37.593305 -122.314552 297 828ft 145kts
30-Dec-19 10:47 37.612038 -122.359334 297 98ft 144kts
30-Dec-19 10:48 37.619891 -122.378940 236 30ft 0kts

Navigation Log

Ident Type
Flight plan parsing failed, navigation log unavailable